Details From RJAA - Narita Intl
To RJTT - Rjtt-tokyo Haneda
Flight Number -
Tags Routegen Generated
Created
Modified
Stats Distance 40 nm / 74 km
Max Altitude 5,000 ft / 1,524 m
Waypoints 5
Social Downloads 3
Likes 0
Share VATSIM

Download

Looking for another format? Having issues loading an existing format? Contact us
Advertisement - Login to hide

Notes

Departing runway 14 RJAA. Arriving runway 15 RJTT. Advanced Generation Settings: Turn accuracy: 20 Altitude: 5000ft Smoothed angles: True Runway changes allowed: True Calculation order: Arrival --> Departure --> Intermediates Multipass intermediates: True

Route

RJAA +35.68_+140.44 +35.58_+140.14 +35.48_+139.85 RJTT

ID Type Via Altitude Latitude Longitude Leg Dist Tot Dist Heading (true) Name
O RJAA APT - 5,000 ft / 1,524 m 35.74332˚ 140.39074˚ - 0 nm - -
+35.68_+140.44 LATLON - 5,000 ft / 1,524 m 35.68088˚ 140.43579˚ 4 nm 4 nm 150° / 150° -
+35.58_+140.14 LATLON - 5,000 ft / 1,524 m 35.58035˚ 140.14168˚ 15 nm 19 nm 247° / 247° -
+35.48_+139.85 LATLON - 880 ft / 268 m 35.47982˚ 139.84758˚ 15 nm 35 nm 247° / 247° -
O RJTT APT - 0 ft / 0 m 35.54251˚ 139.80316˚ 4 nm 39 nm 330° / 330° -

Altitude Profile

Advertisement - Login to hide

RJAA

Details ICAO RJAA (NRT)
Name NARITA INTL
Region Japan
Timezone Asia/Tokyo (UTC+9.0)
Stats Elevation 141 ft / 43 m (AMSL)
Location 35.776552° 140.382770°
Runways 2
Magnetic Variation 7.405° W

METAR

RJAA 142300Z VRB02KT 9999 FEW030 SCT060 BKN/// 02/M02 Q1025 NOSIG

Decode

TAF

TAF RJAA 141705Z 1418/1600 33004KT 9999 FEW030= TAF RJBB 141707Z 1418/1600 03008KT 9999 FEW020 BKN040 BECMG 1509/1512 19005KT

Decode

Departure Runways

ID Width Length Bearing (true) Bearing (mag) Surface Threshold Offset Overrun Length
16L 196 ft / 60 m 7,162 ft / 2,183 m 149.61° 157.02° Asphalt 190 ft / 58 m 0 ft / 0 m
16R 196 ft / 60 m 13,142 ft / 4,006 m 149.61° 157.02° Asphalt 0 ft / 0 m 410 ft / 125 m
34L 196 ft / 60 m 13,142 ft / 4,006 m 329.62° 337.03° Asphalt 0 ft / 0 m 415 ft / 126 m
34R 196 ft / 60 m 7,162 ft / 2,183 m 329.62° 337.03° Asphalt 190 ft / 58 m 0 ft / 0 m

RJTT

Details ICAO RJTT (HND)
Name Tokyo Haneda Intl
Region Japan
Timezone Asia/Tokyo (UTC+9.0)
Stats Elevation 20 ft / 6 m (AMSL)
Location 35.548254° 139.788554°
Runways 4
Magnetic Variation 7.425° W

METAR

RJTT 142300Z 35010KT 9999 FEW030 BKN050 BKN/// 06/M04 Q1025 NOSIG

Decode

TAF

TAF RJTT 141705Z 1418/1600 36008KT 9999 FEW030 BECMG 1503/1505 12006KT BECMG 1509/1512 35006KT BECMG 1521/1600 21008KT

Decode

Destination Runways

ID Width Length Bearing (true) Bearing (mag) Surface Threshold Offset Overrun Length
04 200 ft / 61 m 8,211 ft / 2,503 m 34.90° 42.32° Asphalt 0 ft / 0 m 200 ft / 61 m
05 197 ft / 60 m 8,206 ft / 2,501 m 42.44° 49.86° Asphalt 0 ft / 0 m 197 ft / 60 m
16L 200 ft / 61 m 9,856 ft / 3,004 m 150.00° 157.42° Asphalt 0 ft / 0 m 200 ft / 61 m
16R 200 ft / 61 m 9,986 ft / 3,044 m 150.01° 157.43° Asphalt 131 ft / 40 m 0 ft / 0 m
22 200 ft / 61 m 8,211 ft / 2,503 m 214.90° 222.32° Asphalt 0 ft / 0 m 200 ft / 61 m
23 197 ft / 60 m 8,206 ft / 2,501 m 222.45° 229.87° Asphalt 0 ft / 0 m 197 ft / 60 m
34L 200 ft / 61 m 9,986 ft / 3,044 m 330.02° 337.44° Asphalt 0 ft / 0 m 197 ft / 60 m
34R 200 ft / 61 m 9,856 ft / 3,004 m 330.01° 337.43° Asphalt 0 ft / 0 m 200 ft / 61 m

Approach Navaids

Runway Type Ident Frequency Range Bearing (true) Bearing (mag) Slope Elevation
22 Localiser IAD 108.10 MHz 18 nm / 33 km 215.02° 222.45° - 20 ft / 6 m (AMSL)
22 Glidescope IAD 108.10 MHz 10 nm / 19 km 214.90° 222.32° 3.00° 20 ft / 6 m (AMSL)
22 DME IAD 108.10 MHz 18 nm / 33 km - - - 46 ft / 14 m (AMSL)
23 Localiser ITD 110.50 MHz 18 nm / 33 km 224.99° 232.42° - 20 ft / 6 m (AMSL)
23 Glidescope ITD 110.50 MHz 10 nm / 19 km 225.00° 232.42° 3.00° 20 ft / 6 m (AMSL)
23 DME ITD 110.50 MHz 18 nm / 33 km - - - 20 ft / 6 m (AMSL)
34L Localiser IHA 111.70 MHz 18 nm / 33 km 330.00° 337.42° - 38 ft / 12 m (AMSL)
34L Glidescope IHA 111.70 MHz 10 nm / 19 km 330.01° 337.44° 3.00° 20 ft / 6 m (AMSL)
34L DME IHA 111.70 MHz 18 nm / 33 km - - - 38 ft / 12 m (AMSL)
34R Localiser ITC 108.90 MHz 18 nm / 33 km 330.00° 337.42° - 20 ft / 6 m (AMSL)
34R Glidescope ITC 108.90 MHz 10 nm / 19 km 330.00° 337.43° 3.00° 35 ft / 11 m (AMSL)
34R DME ITC 108.90 MHz 18 nm / 33 km - - - 21 ft / 6 m (AMSL)

Popular Alternatives